sensor_id;sensor_type;location;lat;lon;timestamp;temperature;humidity
20398;DHT22;10358;49.590;11.030;2022-12-29T00:02:13;7.00;99.90
20398;DHT22;10358;49.590;11.030;2022-12-29T00:04:38;7.00;99.90
20398;DHT22;10358;49.590;11.030;2022-12-29T00:07:05;7.10;99.90
20398;DHT22;10358;49.590;11.030;2022-12-29T00:09:31;7.10;99.90
20398;DHT22;10358;49.590;11.030;2022-12-29T00:11:57;7.10;99.90
20398;DHT22;10358;49.590;11.030;2022-12-29T00:14:22;7.20;99.90
20398;DHT22;10358;49.590;11.030;2022-12-29T00:17:07;7.10;99.90
20398;DHT22;10358;49.590;11.030;2022-12-29T00:19:32;7.20;99.90
20398;DHT22;10358;49.590;11.030;2022-12-29T00:22:17;7.20;99.90
20398;DHT22;10358;49.590;11.030;2022-12-29T00:25:02;7.20;99.90
20398;DHT22;10358;49.590;11.030;2022-12-29T00:27:34;7.30;99.90
20398;DHT22;10358;49.590;11.030;2022-12-29T00:30:22;7.30;99.90
20398;DHT22;10358;49.590;11.030;2022-12-29T00:33:15;7.30;99.90
20398;DHT22;10358;49.590;11.030;2022-12-29T00:36:12;7.30;99.90
20398;DHT22;10358;49.590;11.030;2022-12-29T00:38:40;7.30;99.90
20398;DHT22;10358;49.590;11.030;2022-12-29T00:41:25;7.40;99.90
20398;DHT22;10358;49.590;11.030;2022-12-29T00:44:12;7.40;99.90
20398;DHT22;10358;49.590;11.030;2022-12-29T00:46:39;7.40;99.90
20398;DHT22;10358;49.590;11.030;2022-12-29T00:49:07;7.40;99.90
20398;DHT22;10358;49.590;11.030;2022-12-29T00:51:52;7.40;99.90
20398;DHT22;10358;49.590;11.030;2022-12-29T00:54:18;7.50;99.90
20398;DHT22;10358;49.590;11.030;2022-12-29T00:56:49;7.50;99.90
20398;DHT22;10358;49.590;11.030;2022-12-29T00:59:15;7.50;99.90
20398;DHT22;10358;49.590;11.030;2022-12-29T01:01:41;7.50;99.90
20398;DHT22;10358;49.590;11.030;2022-12-29T01:04:08;7.60;99.90
20398;DHT22;10358;49.590;11.030;2022-12-29T01:06:34;7.60;99.90
20398;DHT22;10358;49.590;11.030;2022-12-29T01:09:00;7.60;99.90
20398;DHT22;10358;49.590;11.030;2022-12-29T01:11:44;7.60;99.90
20398;DHT22;10358;49.590;11.030;2022-12-29T01:14:10;7.60;99.90
20398;DHT22;10358;49.590;11.030;2022-12-29T01:16:35;7.60;99.90
20398;DHT22;10358;49.590;11.030;2022-12-29T01:19:02;7.70;99.90
20398;DHT22;10358;49.590;11.030;2022-12-29T01:21:28;7.70;99.90
20398;DHT22;10358;49.590;11.030;2022-12-29T01:23:54;7.70;99.90
20398;DHT22;10358;49.590;11.030;2022-12-29T01:26:19;7.70;99.90
20398;DHT22;10358;49.590;11.030;2022-12-29T01:28:45;7.70;99.90
20398;DHT22;10358;49.590;11.030;2022-12-29T01:31:12;7.80;99.90
20398;DHT22;10358;49.590;11.030;2022-12-29T01:33:38;7.80;99.90
20398;DHT22;10358;49.590;11.030;2022-12-29T01:36:06;7.80;99.90
20398;DHT22;10358;49.590;11.030;2022-12-29T01:38:33;7.80;99.90
20398;DHT22;10358;49.590;11.030;2022-12-29T01:40:59;7.90;99.90
20398;DHT22;10358;49.590;11.030;2022-12-29T01:46:15;7.90;99.90
20398;DHT22;10358;49.590;11.030;2022-12-29T01:48:46;7.90;99.90
20398;DHT22;10358;49.590;11.030;2022-12-29T01:51:12;7.90;99.90
20398;DHT22;10358;49.590;11.030;2022-12-29T01:53:37;7.90;99.90
20398;DHT22;10358;49.590;11.030;2022-12-29T01:56:06;8.00;99.90
20398;DHT22;10358;49.590;11.030;2022-12-29T01:58:37;8.00;99.90
20398;DHT22;10358;49.590;11.030;2022-12-29T02:01:05;8.00;99.90
20398;DHT22;10358;49.590;11.030;2022-12-29T02:03:31;8.00;99.90
20398;DHT22;10358;49.590;11.030;2022-12-29T02:06:35;8.00;99.90
20398;DHT22;10358;49.590;11.030;2022-12-29T02:09:02;8.00;99.90
20398;DHT22;10358;49.590;11.030;2022-12-29T02:11:29;8.10;99.90
20398;DHT22;10358;49.590;11.030;2022-12-29T02:13:55;8.10;99.90
20398;DHT22;10358;49.590;11.030;2022-12-29T02:25:00;8.10;99.90
20398;DHT22;10358;49.590;11.030;2022-12-29T02:35:44;8.20;99.90
20398;DHT22;10358;49.590;11.030;2022-12-29T02:38:26;8.10;99.90
20398;DHT22;10358;49.590;11.030;2022-12-29T02:41:22;8.10;99.90
20398;DHT22;10358;49.590;11.030;2022-12-29T02:44:20;8.20;99.90
20398;DHT22;10358;49.590;11.030;2022-12-29T02:52:40;8.10;99.90
20398;DHT22;10358;49.590;11.030;2022-12-29T02:55:10;8.10;99.90
20398;DHT22;10358;49.590;11.030;2022-12-29T02:57:36;8.10;99.90
20398;DHT22;10358;49.590;11.030;2022-12-29T03:00:15;8.10;99.90
20398;DHT22;10358;49.590;11.030;2022-12-29T03:02:48;8.10;99.90
20398;DHT22;10358;49.590;11.030;2022-12-29T03:10:25;8.00;99.90
20398;DHT22;10358;49.590;11.030;2022-12-29T03:13:08;8.10;99.90
20398;DHT22;10358;49.590;11.030;2022-12-29T03:18:39;8.10;99.90
20398;DHT22;10358;49.590;11.030;2022-12-29T03:21:32;8.10;99.90
20398;DHT22;10358;49.590;11.030;2022-12-29T03:24:25;8.10;99.90
20398;DHT22;10358;49.590;11.030;2022-12-29T03:26:54;8.10;99.90
20398;DHT22;10358;49.590;11.030;2022-12-29T03:29:20;8.10;99.90
20398;DHT22;10358;49.590;11.030;2022-12-29T03:31:49;8.10;99.90
20398;DHT22;10358;49.590;11.030;2022-12-29T03:34:16;8.10;99.90
20398;DHT22;10358;49.590;11.030;2022-12-29T03:36:48;8.10;99.90
20398;DHT22;10358;49.590;11.030;2022-12-29T03:39:17;8.20;99.90
20398;DHT22;10358;49.590;11.030;2022-12-29T03:41:44;8.20;99.90
20398;DHT22;10358;49.590;11.030;2022-12-29T03:44:12;8.20;99.90
20398;DHT22;10358;49.590;11.030;2022-12-29T03:46:38;8.20;99.90
20398;DHT22;10358;49.590;11.030;2022-12-29T03:49:03;8.30;99.90
20398;DHT22;10358;49.590;11.030;2022-12-29T03:51:29;8.20;99.90
20398;DHT22;10358;49.590;11.030;2022-12-29T03:53:55;8.30;99.90
20398;DHT22;10358;49.590;11.030;2022-12-29T03:56:20;8.30;99.90
20398;DHT22;10358;49.590;11.030;2022-12-29T03:58:46;8.30;99.90
20398;DHT22;10358;49.590;11.030;2022-12-29T04:01:11;8.30;99.90
20398;DHT22;10358;49.590;11.030;2022-12-29T04:03:37;8.30;99.90
20398;DHT22;10358;49.590;11.030;2022-12-29T04:06:02;8.30;99.90
20398;DHT22;10358;49.590;11.030;2022-12-29T04:08:28;8.30;99.90
20398;DHT22;10358;49.590;11.030;2022-12-29T04:10:53;8.30;99.90
20398;DHT22;10358;49.590;11.030;2022-12-29T04:13:19;8.30;99.90
20398;DHT22;10358;49.590;11.030;2022-12-29T04:15:44;8.20;99.90
20398;DHT22;10358;49.590;11.030;2022-12-29T04:18:13;8.20;99.90
20398;DHT22;10358;49.590;11.030;2022-12-29T04:20:39;8.10;99.90
20398;DHT22;10358;49.590;11.030;2022-12-29T04:23:23;8.10;99.90
20398;DHT22;10358;49.590;11.030;2022-12-29T04:25:49;8.10;99.90
20398;DHT22;10358;49.590;11.030;2022-12-29T04:28:15;8.10;99.90
20398;DHT22;10358;49.590;11.030;2022-12-29T04:30:41;8.20;99.90
20398;DHT22;10358;49.590;11.030;2022-12-29T04:33:07;8.20;99.90
20398;DHT22;10358;49.590;11.030;2022-12-29T04:35:32;8.20;99.90
20398;DHT22;10358;49.590;11.030;2022-12-29T04:37:58;8.20;99.90
20398;DHT22;10358;49.590;11.030;2022-12-29T04:40:23;8.20;99.90
20398;DHT22;10358;49.590;11.030;2022-12-29T04:42:49;8.20;99.90
20398;DHT22;10358;49.590;11.030;2022-12-29T04:45:15;8.20;99.90
20398;DHT22;10358;49.590;11.030;2022-12-29T04:47:41;8.20;99.90
20398;DHT22;10358;49.590;11.030;2022-12-29T04:50:06;8.20;99.90
20398;DHT22;10358;49.590;11.030;2022-12-29T04:52:32;8.20;99.90
20398;DHT22;10358;49.590;11.030;2022-12-29T04:54:58;8.20;99.90
20398;DHT22;10358;49.590;11.030;2022-12-29T04:57:23;8.20;99.90
20398;DHT22;10358;49.590;11.030;2022-12-29T04:59:49;8.20;99.90
20398;DHT22;10358;49.590;11.030;2022-12-29T05:02:15;8.10;99.90
20398;DHT22;10358;49.590;11.030;2022-12-29T05:04:41;8.10;99.90
20398;DHT22;10358;49.590;11.030;2022-12-29T05:07:06;8.10;99.90
20398;DHT22;10358;49.590;11.030;2022-12-29T05:09:32;8.20;99.90
20398;DHT22;10358;49.590;11.030;2022-12-29T05:11:57;8.20;99.90
20398;DHT22;10358;49.590;11.030;2022-12-29T05:14:23;8.20;99.90
20398;DHT22;10358;49.590;11.030;2022-12-29T05:16:49;8.20;99.90
20398;DHT22;10358;49.590;11.030;2022-12-29T05:19:14;8.20;99.90
20398;DHT22;10358;49.590;11.030;2022-12-29T05:21:40;8.20;99.90
20398;DHT22;10358;49.590;11.030;2022-12-29T05:24:05;8.10;99.90
20398;DHT22;10358;49.590;11.030;2022-12-29T05:26:31;8.10;99.90
20398;DHT22;10358;49.590;11.030;2022-12-29T05:28:57;8.20;99.90
20398;DHT22;10358;49.590;11.030;2022-12-29T05:31:22;8.10;99.90
20398;DHT22;10358;49.590;11.030;2022-12-29T05:33:48;8.10;99.90
20398;DHT22;10358;49.590;11.030;2022-12-29T05:36:13;8.10;99.90
20398;DHT22;10358;49.590;11.030;2022-12-29T05:38:39;8.00;99.90
20398;DHT22;10358;49.590;11.030;2022-12-29T05:41:04;7.90;99.90
20398;DHT22;10358;49.590;11.030;2022-12-29T05:43:30;7.80;99.90
20398;DHT22;10358;49.590;11.030;2022-12-29T05:45:56;7.80;99.90
20398;DHT22;10358;49.590;11.030;2022-12-29T05:48:22;7.70;99.90
20398;DHT22;10358;49.590;11.030;2022-12-29T05:50:48;7.70;99.90
20398;DHT22;10358;49.590;11.030;2022-12-29T05:53:14;7.70;99.90
20398;DHT22;10358;49.590;11.030;2022-12-29T05:55:40;7.60;99.90
20398;DHT22;10358;49.590;11.030;2022-12-29T05:58:05;7.60;99.90
20398;DHT22;10358;49.590;11.030;2022-12-29T06:00:31;7.50;99.90
20398;DHT22;10358;49.590;11.030;2022-12-29T06:02:57;7.40;99.90
20398;DHT22;10358;49.590;11.030;2022-12-29T06:05:22;7.40;99.90
20398;DHT22;10358;49.590;11.030;2022-12-29T06:07:48;7.40;99.90
20398;DHT22;10358;49.590;11.030;2022-12-29T06:10:13;7.40;99.90
20398;DHT22;10358;49.590;11.030;2022-12-29T06:12:39;7.40;99.90
20398;DHT22;10358;49.590;11.030;2022-12-29T06:15:05;7.40;99.90
20398;DHT22;10358;49.590;11.030;2022-12-29T06:17:31;7.40;99.90
20398;DHT22;10358;49.590;11.030;2022-12-29T06:19:56;7.40;99.90
20398;DHT22;10358;49.590;11.030;2022-12-29T06:22:22;7.30;99.90
20398;DHT22;10358;49.590;11.030;2022-12-29T06:24:47;7.40;99.90
20398;DHT22;10358;49.590;11.030;2022-12-29T06:27:13;7.30;99.90
20398;DHT22;10358;49.590;11.030;2022-12-29T06:29:39;7.30;99.90
20398;DHT22;10358;49.590;11.030;2022-12-29T06:32:06;7.20;99.90
20398;DHT22;10358;49.590;11.030;2022-12-29T06:34:32;7.20;99.90
20398;DHT22;10358;49.590;11.030;2022-12-29T06:36:57;7.20;99.90
20398;DHT22;10358;49.590;11.030;2022-12-29T06:39:23;7.10;99.90
20398;DHT22;10358;49.590;11.030;2022-12-29T06:41:52;7.10;99.90
20398;DHT22;10358;49.590;11.030;2022-12-29T06:44:17;7.10;99.90
20398;DHT22;10358;49.590;11.030;2022-12-29T06:46:43;7.10;99.90
20398;DHT22;10358;49.590;11.030;2022-12-29T06:49:08;7.10;99.90
20398;DHT22;10358;49.590;11.030;2022-12-29T06:51:34;7.10;99.90
20398;DHT22;10358;49.590;11.030;2022-12-29T06:53:59;7.10;99.90
20398;DHT22;10358;49.590;11.030;2022-12-29T06:56:25;7.10;99.90
20398;DHT22;10358;49.590;11.030;2022-12-29T06:58:50;7.10;99.90
20398;DHT22;10358;49.590;11.030;2022-12-29T07:01:16;7.10;99.90
20398;DHT22;10358;49.590;11.030;2022-12-29T07:03:42;7.10;99.90
20398;DHT22;10358;49.590;11.030;2022-12-29T07:06:08;7.20;99.90
20398;DHT22;10358;49.590;11.030;2022-12-29T07:08:33;7.20;99.90
20398;DHT22;10358;49.590;11.030;2022-12-29T07:10:59;7.20;99.90
20398;DHT22;10358;49.590;11.030;2022-12-29T07:13:24;7.10;99.90
20398;DHT22;10358;49.590;11.030;2022-12-29T07:15:50;7.20;99.90
20398;DHT22;10358;49.590;11.030;2022-12-29T07:18:15;7.20;99.90
20398;DHT22;10358;49.590;11.030;2022-12-29T07:20:41;7.20;99.90
20398;DHT22;10358;49.590;11.030;2022-12-29T07:23:07;7.20;99.90
20398;DHT22;10358;49.590;11.030;2022-12-29T07:25:32;7.20;99.90
20398;DHT22;10358;49.590;11.030;2022-12-29T07:28:00;7.20;99.90
20398;DHT22;10358;49.590;11.030;2022-12-29T07:30:26;7.20;99.90
20398;DHT22;10358;49.590;11.030;2022-12-29T07:32:51;7.20;99.90
20398;DHT22;10358;49.590;11.030;2022-12-29T07:35:17;7.20;99.90
20398;DHT22;10358;49.590;11.030;2022-12-29T07:37:42;7.20;99.90
20398;DHT22;10358;49.590;11.030;2022-12-29T07:40:09;7.20;99.90
20398;DHT22;10358;49.590;11.030;2022-12-29T07:42:35;7.20;99.90
20398;DHT22;10358;49.590;11.030;2022-12-29T07:45:01;7.30;99.90
20398;DHT22;10358;49.590;11.030;2022-12-29T07:47:27;7.40;99.90
20398;DHT22;10358;49.590;11.030;2022-12-29T07:49:52;7.50;99.90
20398;DHT22;10358;49.590;11.030;2022-12-29T07:52:18;7.60;99.90
20398;DHT22;10358;49.590;11.030;2022-12-29T07:54:44;7.60;99.90
20398;DHT22;10358;49.590;11.030;2022-12-29T07:57:09;7.70;99.90
20398;DHT22;10358;49.590;11.030;2022-12-29T07:59:35;7.80;99.90
20398;DHT22;10358;49.590;11.030;2022-12-29T08:02:00;7.80;99.90
20398;DHT22;10358;49.590;11.030;2022-12-29T08:04:26;7.90;99.90
20398;DHT22;10358;49.590;11.030;2022-12-29T08:06:52;7.90;99.90
20398;DHT22;10358;49.590;11.030;2022-12-29T08:09:17;8.00;99.90
20398;DHT22;10358;49.590;11.030;2022-12-29T08:11:43;8.00;99.90
20398;DHT22;10358;49.590;11.030;2022-12-29T08:14:09;8.10;99.90
20398;DHT22;10358;49.590;11.030;2022-12-29T08:16:35;8.10;99.90
20398;DHT22;10358;49.590;11.030;2022-12-29T08:19:01;8.10;99.90
20398;DHT22;10358;49.590;11.030;2022-12-29T08:21:29;8.20;99.90
20398;DHT22;10358;49.590;11.030;2022-12-29T08:23:55;8.20;99.90
20398;DHT22;10358;49.590;11.030;2022-12-29T08:26:21;8.30;99.90
20398;DHT22;10358;49.590;11.030;2022-12-29T08:28:47;8.30;99.90
20398;DHT22;10358;49.590;11.030;2022-12-29T08:31:12;8.40;99.90
20398;DHT22;10358;49.590;11.030;2022-12-29T08:33:38;8.40;99.90
20398;DHT22;10358;49.590;11.030;2022-12-29T08:36:05;8.40;99.90
20398;DHT22;10358;49.590;11.030;2022-12-29T08:38:32;8.60;99.90
20398;DHT22;10358;49.590;11.030;2022-12-29T08:40:58;8.70;99.90
20398;DHT22;10358;49.590;11.030;2022-12-29T08:43:24;8.70;99.90
20398;DHT22;10358;49.590;11.030;2022-12-29T08:45:50;8.80;99.90
20398;DHT22;10358;49.590;11.030;2022-12-29T08:48:16;8.90;99.90
20398;DHT22;10358;49.590;11.030;2022-12-29T08:50:45;8.90;99.90
20398;DHT22;10358;49.590;11.030;2022-12-29T08:53:11;9.00;99.90
20398;DHT22;10358;49.590;11.030;2022-12-29T08:55:36;9.00;99.90
20398;DHT22;10358;49.590;11.030;2022-12-29T08:58:02;9.10;99.90
20398;DHT22;10358;49.590;11.030;2022-12-29T09:00:27;9.10;99.90
20398;DHT22;10358;49.590;11.030;2022-12-29T09:02:53;9.10;99.90
20398;DHT22;10358;49.590;11.030;2022-12-29T09:05:19;9.20;99.90
20398;DHT22;10358;49.590;11.030;2022-12-29T09:07:44;9.20;99.90
20398;DHT22;10358;49.590;11.030;2022-12-29T09:10:10;9.20;99.90
20398;DHT22;10358;49.590;11.030;2022-12-29T09:12:35;9.30;99.90
20398;DHT22;10358;49.590;11.030;2022-12-29T09:15:01;9.30;99.90
20398;DHT22;10358;49.590;11.030;2022-12-29T09:17:27;9.40;99.90
20398;DHT22;10358;49.590;11.030;2022-12-29T09:20:18;9.50;99.90
20398;DHT22;10358;49.590;11.030;2022-12-29T09:22:45;9.50;99.90
20398;DHT22;10358;49.590;11.030;2022-12-29T09:25:11;9.50;99.90
20398;DHT22;10358;49.590;11.030;2022-12-29T09:27:37;9.50;99.90
20398;DHT22;10358;49.590;11.030;2022-12-29T09:30:05;9.50;99.90
20398;DHT22;10358;49.590;11.030;2022-12-29T09:32:31;9.60;99.90
20398;DHT22;10358;49.590;11.030;2022-12-29T09:34:57;9.70;99.90
20398;DHT22;10358;49.590;11.030;2022-12-29T09:37:23;9.80;99.90
20398;DHT22;10358;49.590;11.030;2022-12-29T09:39:48;9.80;99.90
20398;DHT22;10358;49.590;11.030;2022-12-29T09:42:16;9.90;99.90
20398;DHT22;10358;49.590;11.030;2022-12-29T09:47:24;9.90;99.90
20398;DHT22;10358;49.590;11.030;2022-12-29T09:50:00;9.90;99.90
20398;DHT22;10358;49.590;11.030;2022-12-29T09:52:32;10.00;99.90
20398;DHT22;10358;49.590;11.030;2022-12-29T09:55:22;10.00;99.90
20398;DHT22;10358;49.590;11.030;2022-12-29T09:57:57;10.10;99.90
20398;DHT22;10358;49.590;11.030;2022-12-29T10:00:37;10.10;99.90
20398;DHT22;10358;49.590;11.030;2022-12-29T10:03:15;10.20;99.90
20398;DHT22;10358;49.590;11.030;2022-12-29T10:16:42;10.40;99.90
20398;DHT22;10358;49.590;11.030;2022-12-29T10:24:29;10.40;99.90
20398;DHT22;10358;49.590;11.030;2022-12-29T10:26:58;10.40;99.90
20398;DHT22;10358;49.590;11.030;2022-12-29T10:34:52;10.60;99.90
20398;DHT22;10358;49.590;11.030;2022-12-29T10:37:38;10.60;99.90
20398;DHT22;10358;49.590;11.030;2022-12-29T10:40:31;10.70;99.90
20398;DHT22;10358;49.590;11.030;2022-12-29T10:42:59;10.80;99.90
20398;DHT22;10358;49.590;11.030;2022-12-29T10:45:29;10.90;99.90
20398;DHT22;10358;49.590;11.030;2022-12-29T10:48:12;11.00;99.90
20398;DHT22;10358;49.590;11.030;2022-12-29T10:50:41;11.10;99.90
20398;DHT22;10358;49.590;11.030;2022-12-29T10:53:16;11.20;99.90
20398;DHT22;10358;49.590;11.030;2022-12-29T10:55:43;11.30;99.90
20398;DHT22;10358;49.590;11.030;2022-12-29T10:58:12;11.40;99.90
20398;DHT22;10358;49.590;11.030;2022-12-29T11:00:38;11.50;99.90
20398;DHT22;10358;49.590;11.030;2022-12-29T11:03:35;11.50;99.90
20398;DHT22;10358;49.590;11.030;2022-12-29T11:06:13;11.50;99.90
20398;DHT22;10358;49.590;11.030;2022-12-29T11:08:55;11.60;99.10
20398;DHT22;10358;49.590;11.030;2022-12-29T11:11:27;11.60;98.70
20398;DHT22;10358;49.590;11.030;2022-12-29T11:13:58;11.60;98.80
20398;DHT22;10358;49.590;11.030;2022-12-29T11:16:32;11.50;98.70
20398;DHT22;10358;49.590;11.030;2022-12-29T11:18:58;11.50;99.90
20398;DHT22;10358;49.590;11.030;2022-12-29T11:24:04;11.60;99.30
20398;DHT22;10358;49.590;11.030;2022-12-29T11:26:31;11.50;99.50
20398;DHT22;10358;49.590;11.030;2022-12-29T11:29:23;11.60;99.90
20398;DHT22;10358;49.590;11.030;2022-12-29T11:31:57;11.60;98.90
20398;DHT22;10358;49.590;11.030;2022-12-29T11:37:05;11.70;98.50
20398;DHT22;10358;49.590;11.030;2022-12-29T11:39:39;11.70;99.10
20398;DHT22;10358;49.590;11.030;2022-12-29T11:42:14;11.60;99.90
20398;DHT22;10358;49.590;11.030;2022-12-29T11:44:48;11.60;99.90
20398;DHT22;10358;49.590;11.030;2022-12-29T11:47:26;11.60;99.90
20398;DHT22;10358;49.590;11.030;2022-12-29T11:49:55;11.70;99.80
20398;DHT22;10358;49.590;11.030;2022-12-29T11:52:27;11.70;99.40
20398;DHT22;10358;49.590;11.030;2022-12-29T11:54:54;11.70;99.70
20398;DHT22;10358;49.590;11.030;2022-12-29T11:57:22;11.60;99.90
20398;DHT22;10358;49.590;11.030;2022-12-29T11:59:52;11.60;99.90
20398;DHT22;10358;49.590;11.030;2022-12-29T12:04:48;11.60;99.90
20398;DHT22;10358;49.590;11.030;2022-12-29T12:07:22;11.50;99.90
20398;DHT22;10358;49.590;11.030;2022-12-29T12:09:58;11.50;99.90
20398;DHT22;10358;49.590;11.030;2022-12-29T12:12:41;11.50;99.90
20398;DHT22;10358;49.590;11.030;2022-12-29T12:15:29;11.40;99.90
20398;DHT22;10358;49.590;11.030;2022-12-29T12:18:33;11.40;99.90
20398;DHT22;10358;49.590;11.030;2022-12-29T12:26:16;11.40;99.90
20398;DHT22;10358;49.590;11.030;2022-12-29T12:28:57;11.40;99.90
20398;DHT22;10358;49.590;11.030;2022-12-29T12:34:35;11.50;99.90
20398;DHT22;10358;49.590;11.030;2022-12-29T12:40:13;11.50;99.90
20398;DHT22;10358;49.590;11.030;2022-12-29T12:43:09;11.60;99.90
20398;DHT22;10358;49.590;11.030;2022-12-29T12:45:58;11.50;99.90
20398;DHT22;10358;49.590;11.030;2022-12-29T12:51:36;11.50;99.90
20398;DHT22;10358;49.590;11.030;2022-12-29T13:04:56;11.50;99.90
20398;DHT22;10358;49.590;11.030;2022-12-29T13:10:50;11.40;99.90
20398;DHT22;10358;49.590;11.030;2022-12-29T13:13:48;11.40;99.90
20398;DHT22;10358;49.590;11.030;2022-12-29T13:16:56;11.30;99.90
20398;DHT22;10358;49.590;11.030;2022-12-29T13:20:31;11.30;99.90
20398;DHT22;10358;49.590;11.030;2022-12-29T13:28:25;11.30;99.90
20398;DHT22;10358;49.590;11.030;2022-12-29T13:31:02;11.30;99.90
20398;DHT22;10358;49.590;11.030;2022-12-29T13:33:45;11.30;99.90
20398;DHT22;10358;49.590;11.030;2022-12-29T13:36:33;11.30;99.90
20398;DHT22;10358;49.590;11.030;2022-12-29T13:39:16;11.30;99.90
20398;DHT22;10358;49.590;11.030;2022-12-29T13:41:49;11.20;99.90
20398;DHT22;10358;49.590;11.030;2022-12-29T13:44:20;11.30;99.90
20398;DHT22;10358;49.590;11.030;2022-12-29T13:46:48;11.30;99.90
20398;DHT22;10358;49.590;11.030;2022-12-29T13:49:19;11.30;99.90
20398;DHT22;10358;49.590;11.030;2022-12-29T13:51:51;11.30;99.90
20398;DHT22;10358;49.590;11.030;2022-12-29T13:57:48;11.20;99.90
20398;DHT22;10358;49.590;11.030;2022-12-29T14:00:19;11.20;99.90
20398;DHT22;10358;49.590;11.030;2022-12-29T14:07:46;11.20;99.90
20398;DHT22;10358;49.590;11.030;2022-12-29T14:10:34;11.10;99.90
20398;DHT22;10358;49.590;11.030;2022-12-29T14:13:18;11.10;99.90
20398;DHT22;10358;49.590;11.030;2022-12-29T14:15:50;11.10;99.90
20398;DHT22;10358;49.590;11.030;2022-12-29T14:18:19;11.10;99.90
20398;DHT22;10358;49.590;11.030;2022-12-29T14:21:01;11.10;99.90
20398;DHT22;10358;49.590;11.030;2022-12-29T14:23:45;11.10;99.90
20398;DHT22;10358;49.590;11.030;2022-12-29T14:28:47;11.00;99.90
20398;DHT22;10358;49.590;11.030;2022-12-29T14:33:39;10.90;99.90
20398;DHT22;10358;49.590;11.030;2022-12-29T14:36:21;10.90;99.90
20398;DHT22;10358;49.590;11.030;2022-12-29T14:38:48;10.80;99.90
20398;DHT22;10358;49.590;11.030;2022-12-29T14:41:35;10.70;99.90
20398;DHT22;10358;49.590;11.030;2022-12-29T14:44:16;10.70;99.90
20398;DHT22;10358;49.590;11.030;2022-12-29T14:46:55;10.70;99.90
20398;DHT22;10358;49.590;11.030;2022-12-29T14:49:27;10.60;99.90
20398;DHT22;10358;49.590;11.030;2022-12-29T14:52:03;10.50;99.90
20398;DHT22;10358;49.590;11.030;2022-12-29T14:57:04;10.30;99.90
20398;DHT22;10358;49.590;11.030;2022-12-29T14:59:33;10.30;99.90
20398;DHT22;10358;49.590;11.030;2022-12-29T15:02:03;10.20;99.90
20398;DHT22;10358;49.590;11.030;2022-12-29T15:04:33;10.20;99.90
20398;DHT22;10358;49.590;11.030;2022-12-29T15:07:02;10.10;99.90
20398;DHT22;10358;49.590;11.030;2022-12-29T15:09:39;10.00;99.90
20398;DHT22;10358;49.590;11.030;2022-12-29T15:12:30;9.90;99.90
20398;DHT22;10358;49.590;11.030;2022-12-29T15:14:59;9.90;99.90
20398;DHT22;10358;49.590;11.030;2022-12-29T15:17:30;9.90;99.90
20398;DHT22;10358;49.590;11.030;2022-12-29T15:19:58;9.80;99.90
20398;DHT22;10358;49.590;11.030;2022-12-29T15:22:24;9.80;99.90
20398;DHT22;10358;49.590;11.030;2022-12-29T15:24:54;9.70;99.90
20398;DHT22;10358;49.590;11.030;2022-12-29T15:27:25;9.70;99.90
20398;DHT22;10358;49.590;11.030;2022-12-29T15:30:03;9.70;99.90
20398;DHT22;10358;49.590;11.030;2022-12-29T15:32:38;9.60;99.90
20398;DHT22;10358;49.590;11.030;2022-12-29T15:37:47;9.60;99.90
20398;DHT22;10358;49.590;11.030;2022-12-29T15:40:29;9.60;99.90
20398;DHT22;10358;49.590;11.030;2022-12-29T15:45:48;9.60;99.90
20398;DHT22;10358;49.590;11.030;2022-12-29T15:48:18;9.60;99.90
20398;DHT22;10358;49.590;11.030;2022-12-29T15:50:45;9.60;99.90
20398;DHT22;10358;49.590;11.030;2022-12-29T15:53:17;9.60;99.90
20398;DHT22;10358;49.590;11.030;2022-12-29T15:55:44;9.70;99.90
20398;DHT22;10358;49.590;11.030;2022-12-29T15:58:21;9.70;99.90
20398;DHT22;10358;49.590;11.030;2022-12-29T16:00:55;9.70;99.90
20398;DHT22;10358;49.590;11.030;2022-12-29T16:03:23;9.80;99.90
20398;DHT22;10358;49.590;11.030;2022-12-29T16:05:53;9.80;99.90
20398;DHT22;10358;49.590;11.030;2022-12-29T16:08:37;9.80;99.90
20398;DHT22;10358;49.590;11.030;2022-12-29T16:11:47;9.80;99.90
20398;DHT22;10358;49.590;11.030;2022-12-29T16:13:54;9.90;99.90
20398;DHT22;10358;49.590;11.030;2022-12-29T16:16:26;9.90;99.90
20398;DHT22;10358;49.590;11.030;2022-12-29T16:18:54;9.90;99.90
20398;DHT22;10358;49.590;11.030;2022-12-29T16:21:27;9.90;99.90
20398;DHT22;10358;49.590;11.030;2022-12-29T16:23:55;9.90;99.90
20398;DHT22;10358;49.590;11.030;2022-12-29T16:26:24;9.90;99.90
20398;DHT22;10358;49.590;11.030;2022-12-29T16:28:54;9.90;99.90
20398;DHT22;10358;49.590;11.030;2022-12-29T16:31:23;9.80;99.90
20398;DHT22;10358;49.590;11.030;2022-12-29T16:33:54;9.90;99.90
20398;DHT22;10358;49.590;11.030;2022-12-29T16:38:49;9.90;99.90
20398;DHT22;10358;49.590;11.030;2022-12-29T16:41:31;9.90;99.90
20398;DHT22;10358;49.590;11.030;2022-12-29T16:44:20;9.90;99.90
20398;DHT22;10358;49.590;11.030;2022-12-29T16:47:18;9.80;99.90
20398;DHT22;10358;49.590;11.030;2022-12-29T16:49:50;9.80;99.90
20398;DHT22;10358;49.590;11.030;2022-12-29T16:52:22;9.90;99.90
20398;DHT22;10358;49.590;11.030;2022-12-29T16:54:54;9.90;99.90
20398;DHT22;10358;49.590;11.030;2022-12-29T16:57:23;9.90;99.90
20398;DHT22;10358;49.590;11.030;2022-12-29T16:59:51;9.90;99.90
20398;DHT22;10358;49.590;11.030;2022-12-29T17:02:21;9.90;99.90
20398;DHT22;10358;49.590;11.030;2022-12-29T17:04:47;9.90;99.90
20398;DHT22;10358;49.590;11.030;2022-12-29T17:07:22;9.90;99.90
20398;DHT22;10358;49.590;11.030;2022-12-29T17:09:50;9.90;99.90
20398;DHT22;10358;49.590;11.030;2022-12-29T17:12:21;9.90;99.90
20398;DHT22;10358;49.590;11.030;2022-12-29T17:14:59;9.90;99.90
20398;DHT22;10358;49.590;11.030;2022-12-29T17:19:52;9.90;99.90
20398;DHT22;10358;49.590;11.030;2022-12-29T17:22:25;9.90;99.90
20398;DHT22;10358;49.590;11.030;2022-12-29T17:24:52;10.00;99.90
20398;DHT22;10358;49.590;11.030;2022-12-29T17:27:27;10.00;99.90
20398;DHT22;10358;49.590;11.030;2022-12-29T17:29:56;10.10;99.90
20398;DHT22;10358;49.590;11.030;2022-12-29T17:32:23;10.10;99.90
20398;DHT22;10358;49.590;11.030;2022-12-29T17:34:48;10.10;99.90
20398;DHT22;10358;49.590;11.030;2022-12-29T17:39:48;10.10;99.90
20398;DHT22;10358;49.590;11.030;2022-12-29T17:42:13;10.00;99.90
20398;DHT22;10358;49.590;11.030;2022-12-29T17:44:40;10.00;99.90
20398;DHT22;10358;49.590;11.030;2022-12-29T17:47:09;10.00;99.90
20398;DHT22;10358;49.590;11.030;2022-12-29T17:49:35;10.00;99.90
20398;DHT22;10358;49.590;11.030;2022-12-29T17:52:00;10.00;99.90
20398;DHT22;10358;49.590;11.030;2022-12-29T17:54:26;9.80;99.90
20398;DHT22;10358;49.590;11.030;2022-12-29T17:56:52;9.70;99.90
20398;DHT22;10358;49.590;11.030;2022-12-29T17:59:17;9.60;99.90